Pacific Dawn — 2AGH7 — position and weather

sailwx.info

Track history (hours):
 
Tides and Currents Weather Stations Pressure Air Temp Water Temp Dewpoint Dewpoint Depression Visibility Wind Speed Wind Dir Waves Ship Positions

Pacific Dawn

Last reported at 2018-Aug-12 17:00 UTC. Time now 2018-Aug-14 21:09 UTC.
Position S 20°36' E 149°18'.

Length 245 m; draft 8.3 m.

Type: Passenger vessel. MMSI: 235059368.

Wind from 170 at 23 knots

Barometer 1016.7 mb
Air temperature 21.5 ° C
Visibility: greater than 10.8 NM
Dewpoint 19.1 ° C
Water temperature 23.0 ° C

Date/timePositionNaut miles runAvg speedWind from/ knotsBaromVisibWave heightAir tempDewpointWater temp
2018-Aug-12 17:00S 20°36' E 149°18'42313.2 170 / 231016.710.8 21.519.123.0
2018-Aug-11 08:52S 26°40' E 153°14'410.2
2018-Aug-11 08:30S 26°43' E 153°12'612.2
2018-Aug-11 08:00S 26°49' E 153°10'713.7
2018-Aug-11 07:30S 26°56' E 153°12'815.2
2018-Aug-11 07:00S 27°02' E 153°15'815.2
2018-Aug-11 06:30S 27°08' E 153°21'815.7
2018-Aug-11 06:00S 27°16' E 153°18'714.2
2018-Aug-11 05:30S 27°20' E 153°12'510.4
2018-Aug-11 05:00S 27°25' E 153°09'3 6.6
2018-Aug-11 04:30S 27°27' E 153°06'2 3.6
2018-Aug-11 04:00S 27°26' E 153°04'0 0.0
2018-Aug-11 03:24S 27°26' E 153°04'0 0.0
2018-Aug-11 03:01S 27°26' E 153°04'0 0.0
2018-Aug-11 02:21S 27°26' E 153°04'0 0.0
2018-Aug-11 01:57S 27°26' E 153°04'0 0.0
2018-Aug-11 01:30S 27°26' E 153°04'0 0.0
2018-Aug-11 01:00S 27°26' E 153°04'0 0.0
2018-Aug-11 00:31S 27°26' E 153°04'0 0.0
2018-Aug-10 23:57S 27°26' E 153°04'0 0.0
2018-Aug-10 22:46S 27°26' E 153°04'0 0.0
2018-Aug-10 22:28S 27°26' E 153°04'0 0.0
2018-Aug-10 21:55S 27°26' E 153°04'0 0.0
2018-Aug-10 21:30S 27°26' E 153°04'0 0.0
2018-Aug-10 20:54S 27°26' E 153°04'0 0.0
2018-Aug-10 20:19S 27°26' E 153°04'0 0.0
2018-Aug-10 20:01S 27°26' E 153°04'1 1.6
2018-Aug-10 19:28S 27°27' E 153°05'3 6.8
2018-Aug-10 19:00S 27°25' E 153°08'4 7.5
2018-Aug-10 18:30S 27°22' E 153°10'611.5
2018-Aug-10 18:00S 27°17' E 153°14'510.5
2018-Aug-10 17:30S 27°15' E 153°19'815.3
2018-Aug-10 16:59S 27°07' E 153°20'715.1
2018-Aug-10 16:30S 27°01' E 153°15'815.9
2018-Aug-10 16:00S 26°54' E 153°11'1111.1
2018-Aug-10 14:58S 26°43' E 153°11'1212.9
2018-Aug-10 14:03S 26°39' E 153°24'113.9
2018-Aug-10 13:56S 26°38' E 153°25'8514.2
2018-Aug-10 08:00S 25°42' E 154°36'7324.3 130 / 251018.910.8 20.713.423.0
2018-Aug-10 05:00S 25°00' E 155°42'13414.9 130 / 301017.710.8 21.713.623.0
2018-Aug-09 20:00S 23°42' E 157°42'29026.3 120 / 311018.110.8 21.016.023.0
2018-Aug-09 09:00S 20°30' E 161°36'0 0.0 120 / 141015.627.0 22.018.923.0
2018-Aug-09 05:00S 20°30' E 161°36'16117.8 120 / 141014.127.0 22.018.924.0
2018-Aug-08 20:00S 18°36' E 163°36'245 9.1 090 / 191015.6 5.4 23.518.825.0
2018-Aug-07 17:00S 18°18' E 167°54'254 8.8 130 / 231009.410.8 22.017.223.0
2018-Aug-06 12:06S 22°24' E 166°47'217.1
2018-Aug-06 12:00S 22°24' E 166°45'917.5
2018-Aug-06 11:30S 22°22' E 166°36'917.6
2018-Aug-06 11:00S 22°20' E 166°27'3 6.8
2018-Aug-06 10:30S 22°16' E 166°26'0 0.3
2018-Aug-06 10:00S 22°16' E 166°26'0 0.0
2018-Aug-06 09:30S 22°16' E 166°26'0 0.0
2018-Aug-06 08:57S 22°16' E 166°26'0 0.0
2018-Aug-06 08:30S 22°16' E 166°26'0 0.0
2018-Aug-06 08:00S 22°16' E 166°26'0 0.0
2018-Aug-06 07:30S 22°16' E 166°26'0 0.0
2018-Aug-06 06:57S 22°16' E 166°26'0 0.0
2018-Aug-06 06:30S 22°16' E 166°26'0 0.0
2018-Aug-06 06:00S 22°16' E 166°26'0 0.0
2018-Aug-06 05:30S 22°16' E 166°26'0 0.0
2018-Aug-06 05:00S 22°16' E 166°26'0 0.0
2018-Aug-06 04:30S 22°16' E 166°26'0 0.0
2018-Aug-06 03:57S 22°16' E 166°26'0 0.0
2018-Aug-06 03:29S 22°16' E 166°26'2 4.2
2018-Aug-06 03:00S 22°18' E 166°24'714.2
2018-Aug-06 02:30S 22°20' E 166°17'9414.5
2018-Aug-05 20:00S 22°54' E 164°42'51721.5 130 / 121017.610.8 21.014.223.0
2018-Aug-04 20:00S 25°48' E 155°48'0 0.0 080 / 51019.410.8 21.016.022.0
2018-Aug-04 17:00S 25°48' E 155°48'13618.2 340 / 141013.110.8 20.516.423.0
2018-Aug-04 09:30S 26°38' E 153°27'1018.2
2018-Aug-04 08:55S 26°39' E 153°15'512.0
2018-Aug-04 08:30S 26°43' E 153°11'612.5
2018-Aug-04 08:00S 26°49' E 153°09'815.6
2018-Aug-04 07:30S 26°56' E 153°12'816.4
2018-Aug-04 07:00S 27°03' E 153°18'816.2
2018-Aug-04 06:30S 27°11' E 153°21'714.9
2018-Aug-04 06:00S 27°16' E 153°16'714.4
2018-Aug-04 05:30S 27°22' E 153°10'4 7.8
2018-Aug-04 05:00S 27°25' E 153°08'3 6.5
2018-Aug-04 04:30S 27°27' E 153°05'1 0.8
2018-Aug-04 03:37S 27°26' E 153°04'0 0.0
2018-Aug-04 03:12S 27°26' E 153°04'0 0.0
2018-Aug-04 02:49S 27°26' E 153°04'0 0.0
2018-Aug-04 02:21S 27°26' E 153°04'0 0.0
2018-Aug-04 02:01S 27°26' E 153°04'0 0.0
2018-Aug-04 01:27S 27°26' E 153°04'0 0.0
2018-Aug-04 00:58S 27°26' E 153°04'0 0.0
2018-Aug-04 00:22S 27°26' E 153°04'0 0.0
2018-Aug-04 00:01S 27°26' E 153°04'0 0.0
2018-Aug-03 23:06S 27°26' E 153°04'0 0.0
2018-Aug-03 23:00S 27°26' E 153°04'0 0.0
2018-Aug-03 22:28S 27°26' E 153°04'0 0.0
2018-Aug-03 21:46S 27°26' E 153°04'0 0.0
2018-Aug-03 21:22S 27°26' E 153°04'0 0.0
2018-Aug-03 20:33S 27°26' E 153°04'0 0.0
2018-Aug-03 20:31S 27°26' E 153°04'0 0.0
2018-Aug-03 19:58S 27°26' E 153°04'0 0.5
2018-Aug-03 19:31S 27°27' E 153°04'3 5.6
2018-Aug-03 19:01S 27°26' E 153°07'3 6.7
2018-Aug-03 18:30S 27°23' E 153°09'4 8.7
2018-Aug-03 18:01S 27°19' E 153°12'713.0
2018-Aug-03 17:30S 27°15' E 153°18'612.8
2018-Aug-03 17:00S 27°10' E 153°21'713.8
2018-Aug-03 16:30S 27°03' E 153°18'815.7
2018-Aug-03 16:00S 26°57' E 153°13'815.9
2018-Aug-03 15:30S 26°50' E 153°09'713.7
2018-Aug-03 14:58S 26°43' E 153°11'612.2
2018-Aug-03 14:30S 26°38' E 153°15'12923.3
2018-Aug-03 09:00S 24°30' E 153°30'14311.9 060 / 131018.110.8 20.513.623.0
2018-Aug-02 21:00S 22°42' E 151°48'   090 / 201018.410.8 21.017.822.0
Track history (hours):
 
Tides and Currents Weather Stations Pressure Air Temp Water Temp Dewpoint Dewpoint Depression Visibility Wind Speed Wind Dir Waves Ship Positions

Pacific Dawn

Last reported at 2018-Aug-12 17:00 UTC. Time now 2018-Aug-14 21:09 UTC.
Position S 20°36' E 149°18'.

Length 245 m; draft 8.3 m.

Type: Passenger vessel. MMSI: 235059368.

Wind from 170 at 23 knots

Barometer 1016.7 mb
Air temperature 21.5 ° C
Visibility: greater than 10.8 NM
Dewpoint 19.1 ° C
Water temperature 23.0 ° C

Date/timePositionNaut miles runAvg speedWind from/ knotsBaromVisibWave heightAir tempDewpointWater temp
2018-Aug-12 17:00S 20°36' E 149°18'42313.2 170 / 231016.710.8 21.519.123.0
2018-Aug-11 08:52S 26°40' E 153°14'410.2
2018-Aug-11 08:30S 26°43' E 153°12'612.2
2018-Aug-11 08:00S 26°49' E 153°10'713.7
2018-Aug-11 07:30S 26°56' E 153°12'815.2
2018-Aug-11 07:00S 27°02' E 153°15'815.2
2018-Aug-11 06:30S 27°08' E 153°21'815.7
2018-Aug-11 06:00S 27°16' E 153°18'714.2
2018-Aug-11 05:30S 27°20' E 153°12'510.4
2018-Aug-11 05:00S 27°25' E 153°09'3 6.6
2018-Aug-11 04:30S 27°27' E 153°06'2 3.6
2018-Aug-11 04:00S 27°26' E 153°04'0 0.0
2018-Aug-11 03:24S 27°26' E 153°04'0 0.0
2018-Aug-11 03:01S 27°26' E 153°04'0 0.0
2018-Aug-11 02:21S 27°26' E 153°04'0 0.0
2018-Aug-11 01:57S 27°26' E 153°04'0 0.0
2018-Aug-11 01:30S 27°26' E 153°04'0 0.0
2018-Aug-11 01:00S 27°26' E 153°04'0 0.0
2018-Aug-11 00:31S 27°26' E 153°04'0 0.0
2018-Aug-10 23:57S 27°26' E 153°04'0 0.0
2018-Aug-10 22:46S 27°26' E 153°04'0 0.0
2018-Aug-10 22:28S 27°26' E 153°04'0 0.0
2018-Aug-10 21:55S 27°26' E 153°04'0 0.0
2018-Aug-10 21:30S 27°26' E 153°04'0 0.0
2018-Aug-10 20:54S 27°26' E 153°04'0 0.0
2018-Aug-10 20:19S 27°26' E 153°04'0 0.0
2018-Aug-10 20:01S 27°26' E 153°04'1 1.6
2018-Aug-10 19:28S 27°27' E 153°05'3 6.8
2018-Aug-10 19:00S 27°25' E 153°08'4 7.5
2018-Aug-10 18:30S 27°22' E 153°10'611.5
2018-Aug-10 18:00S 27°17' E 153°14'510.5
2018-Aug-10 17:30S 27°15' E 153°19'815.3
2018-Aug-10 16:59S 27°07' E 153°20'715.1
2018-Aug-10 16:30S 27°01' E 153°15'815.9
2018-Aug-10 16:00S 26°54' E 153°11'1111.1
2018-Aug-10 14:58S 26°43' E 153°11'1212.9
2018-Aug-10 14:03S 26°39' E 153°24'113.9
2018-Aug-10 13:56S 26°38' E 153°25'8514.2
2018-Aug-10 08:00S 25°42' E 154°36'7324.3 130 / 251018.910.8 20.713.423.0
2018-Aug-10 05:00S 25°00' E 155°42'13414.9 130 / 301017.710.8 21.713.623.0
2018-Aug-09 20:00S 23°42' E 157°42'29026.3 120 / 311018.110.8 21.016.023.0
2018-Aug-09 09:00S 20°30' E 161°36'0 0.0 120 / 141015.627.0 22.018.923.0
2018-Aug-09 05:00S 20°30' E 161°36'16117.8 120 / 141014.127.0 22.018.924.0
2018-Aug-08 20:00S 18°36' E 163°36'245 9.1 090 / 191015.6 5.4 23.518.825.0
2018-Aug-07 17:00S 18°18' E 167°54'254 8.8 130 / 231009.410.8 22.017.223.0
2018-Aug-06 12:06S 22°24' E 166°47'217.1
2018-Aug-06 12:00S 22°24' E 166°45'917.5
2018-Aug-06 11:30S 22°22' E 166°36'917.6
2018-Aug-06 11:00S 22°20' E 166°27'3 6.8
2018-Aug-06 10:30S 22°16' E 166°26'0 0.3
2018-Aug-06 10:00S 22°16' E 166°26'0 0.0
2018-Aug-06 09:30S 22°16' E 166°26'0 0.0
2018-Aug-06 08:57S 22°16' E 166°26'0 0.0
2018-Aug-06 08:30S 22°16' E 166°26'0 0.0
2018-Aug-06 08:00S 22°16' E 166°26'0 0.0
2018-Aug-06 07:30S 22°16' E 166°26'0 0.0
2018-Aug-06 06:57S 22°16' E 166°26'0 0.0
2018-Aug-06 06:30S 22°16' E 166°26'0 0.0
2018-Aug-06 06:00S 22°16' E 166°26'0 0.0
2018-Aug-06 05:30S 22°16' E 166°26'0 0.0
2018-Aug-06 05:00S 22°16' E 166°26'0 0.0
2018-Aug-06 04:30S 22°16' E 166°26'0 0.0
2018-Aug-06 03:57S 22°16' E 166°26'0 0.0
2018-Aug-06 03:29S 22°16' E 166°26'2 4.2
2018-Aug-06 03:00S 22°18' E 166°24'714.2
2018-Aug-06 02:30S 22°20' E 166°17'9414.5
2018-Aug-05 20:00S 22°54' E 164°42'51721.5 130 / 121017.610.8 21.014.223.0
2018-Aug-04 20:00S 25°48' E 155°48'0 0.0 080 / 51019.410.8 21.016.022.0
2018-Aug-04 17:00S 25°48' E 155°48'13618.2 340 / 141013.110.8 20.516.423.0
2018-Aug-04 09:30S 26°38' E 153°27'1018.2
2018-Aug-04 08:55S 26°39' E 153°15'512.0
2018-Aug-04 08:30S 26°43' E 153°11'612.5
2018-Aug-04 08:00S 26°49' E 153°09'815.6
2018-Aug-04 07:30S 26°56' E 153°12'816.4
2018-Aug-04 07:00S 27°03' E 153°18'816.2
2018-Aug-04 06:30S 27°11' E 153°21'714.9
2018-Aug-04 06:00S 27°16' E 153°16'714.4
2018-Aug-04 05:30S 27°22' E 153°10'4 7.8
2018-Aug-04 05:00S 27°25' E 153°08'3 6.5
2018-Aug-04 04:30S 27°27' E 153°05'1 0.8
2018-Aug-04 03:37S 27°26' E 153°04'0 0.0
2018-Aug-04 03:12S 27°26' E 153°04'0 0.0
2018-Aug-04 02:49S 27°26' E 153°04'0 0.0
2018-Aug-04 02:21S 27°26' E 153°04'0 0.0
2018-Aug-04 02:01S 27°26' E 153°04'0 0.0
2018-Aug-04 01:27S 27°26' E 153°04'0 0.0
2018-Aug-04 00:58S 27°26' E 153°04'0 0.0
2018-Aug-04 00:22S 27°26' E 153°04'0 0.0
2018-Aug-04 00:01S 27°26' E 153°04'0 0.0
2018-Aug-03 23:06S 27°26' E 153°04'0 0.0
2018-Aug-03 23:00S 27°26' E 153°04'0 0.0
2018-Aug-03 22:28S 27°26' E 153°04'0 0.0
2018-Aug-03 21:46S 27°26' E 153°04'0 0.0
2018-Aug-03 21:22S 27°26' E 153°04'0 0.0
2018-Aug-03 20:33S 27°26' E 153°04'0 0.0
2018-Aug-03 20:31S 27°26' E 153°04'0 0.0
2018-Aug-03 19:58S 27°26' E 153°04'0 0.5
2018-Aug-03 19:31S 27°27' E 153°04'3 5.6
2018-Aug-03 19:01S 27°26' E 153°07'3 6.7
2018-Aug-03 18:30S 27°23' E 153°09'4 8.7
2018-Aug-03 18:01S 27°19' E 153°12'713.0
2018-Aug-03 17:30S 27°15' E 153°18'612.8
2018-Aug-03 17:00S 27°10' E 153°21'713.8
2018-Aug-03 16:30S 27°03' E 153°18'815.7
2018-Aug-03 16:00S 26°57' E 153°13'815.9
2018-Aug-03 15:30S 26°50' E 153°09'713.7
2018-Aug-03 14:58S 26°43' E 153°11'612.2
2018-Aug-03 14:30S 26°38' E 153°15'12923.3
2018-Aug-03 09:00S 24°30' E 153°30'14311.9 060 / 131018.110.8 20.513.623.0
2018-Aug-02 21:00S 22°42' E 151°48'   090 / 201018.410.8 21.017.822.0

Dump ship's entire track history